Time;durP1;ratioP1;P1;durP2;ratioP2;P2;SDS_P1;SDS_P2;PMS_P1;PMS_P2;Temp;Humidity;BMP_temperature;BMP_pressure;BME280_temperature;BME280_humidity;BME280_pressure;Samples;Min_cycle;Max_cycle;Signal;HPM_P1;HPM_P2
2021/08/10 00:00:33;;;;;;;6.75;5.83;;;;;;;27.56;57.23;99883.55;1763253;77;21104;-60
2021/08/10 00:02:59;;;;;;;6.08;5.58;;;;;;;27.56;57.25;99891.73;1821150;77;21049;-60
2021/08/10 00:05:26;;;;;;;6.08;5.67;;;;;;;27.54;57.27;99888.46;1817248;77;21549;-61
2021/08/10 00:07:54;;;;;;;5.83;5.37;;;;;;;27.54;57.32;99887.66;1800450;78;21541;-61
2021/08/10 00:10:21;;;;;;;6.20;5.60;;;;;;;27.53;57.33;99892.30;1816989;77;21140;-60
2021/08/10 00:12:49;;;;;;;5.60;5.12;;;;;;;27.52;57.32;99893.38;1813195;78;21611;-60
2021/08/10 00:15:15;;;;;;;6.25;5.75;;;;;;;27.50;57.33;99894.20;1817581;77;21600;-61
2021/08/10 00:17:44;;;;;;;5.85;5.40;;;;;;;27.50;57.36;99892.03;1812033;77;21069;-59
2021/08/10 00:20:13;;;;;;;6.15;5.72;;;;;;;27.49;57.41;99893.95;1805086;78;21036;-60
2021/08/10 00:22:39;;;;;;;6.35;5.75;;;;;;;27.48;57.37;99894.22;1812855;77;21798;-62
2021/08/10 00:25:07;;;;;;;6.10;5.60;;;;;;;27.47;57.37;99892.05;1802691;78;21030;-63
2021/08/10 00:27:34;;;;;;;6.28;5.60;;;;;;;27.45;57.42;99895.05;1792262;78;21071;-63
2021/08/10 00:30:00;;;;;;;5.78;5.28;;;;;;;27.44;57.50;99892.03;1802343;78;21574;-64
2021/08/10 00:32:27;;;;;;;5.80;5.22;;;;;;;27.44;57.51;99892.59;1796717;78;21061;-63
2021/08/10 00:34:54;;;;;;;8.20;6.37;;;;;;;27.43;57.52;99892.34;1794814;77;21172;-63
2021/08/10 00:37:20;;;;;;;6.20;5.70;;;;;;;27.41;57.54;99893.13;1805539;78;21025;-63
2021/08/10 00:39:47;;;;;;;6.33;5.83;;;;;;;27.39;57.54;99885.25;1805356;77;21073;-64
2021/08/10 00:42:15;;;;;;;5.97;5.33;;;;;;;27.39;57.52;99887.14;1826808;77;21030;-64
2021/08/10 00:44:42;;;;;;;5.50;5.10;;;;;;;27.38;57.54;99897.23;1821088;77;21049;-64
2021/08/10 00:47:09;;;;;;;5.60;5.20;;;;;;;27.38;57.52;99895.06;1814270;78;21103;-65
2021/08/10 00:49:36;;;;;;;5.90;5.50;;;;;;;27.37;57.49;99897.50;1806771;78;21170;-64
2021/08/10 00:52:04;;;;;;;6.05;5.62;;;;;;;27.36;57.48;99896.70;1793387;78;21026;-65
2021/08/10 00:54:32;;;;;;;5.87;5.37;;;;;;;27.35;57.51;99896.97;1793618;77;21069;-63
2021/08/10 00:56:59;;;;;;;5.60;5.20;;;;;;;27.34;57.55;99901.61;1810175;78;21069;-64
2021/08/10 00:59:27;;;;;;;5.97;5.37;;;;;;;27.32;57.52;99905.16;1819310;77;21859;-64
2021/08/10 01:01:56;;;;;;;6.15;5.65;;;;;;;27.31;57.57;99900.78;1813253;77;21065;-64
2021/08/10 01:04:23;;;;;;;6.75;6.15;;;;;;;27.30;57.47;99897.00;1774141;78;21347;-63
2021/08/10 01:07:28;;;;;;;5.83;5.33;;;;;;;27.30;57.51;99895.63;1810273;78;21030;-65
2021/08/10 01:10:24;;;;;;;5.72;5.33;;;;;;;27.27;57.50;99898.34;1799350;78;21037;-64
2021/08/10 01:13:20;;;;;;;9.25;8.18;;;;;;;27.25;57.54;99906.83;1818766;78;21099;-63
2021/08/10 01:16:11;;;;;;;5.97;5.47;;;;;;;27.22;57.52;99893.70;1812320;77;21029;-64
2021/08/10 01:18:43;;;;;;;5.58;5.08;;;;;;;27.18;57.58;99892.61;1795212;78;21093;-63
2021/08/10 01:21:24;;;;;;;6.00;5.50;;;;;;;27.15;57.61;99893.16;1811414;78;21573;-63
2021/08/10 01:24:06;;;;;;;5.50;5.10;;;;;;;27.14;57.65;99893.42;1797044;78;21057;-62
2021/08/10 01:26:45;;;;;;;6.37;5.62;;;;;;;27.12;57.63;99896.97;1817315;78;21132;-63
2021/08/10 01:29:21;;;;;;;6.90;5.30;;;;;;;27.11;57.69;99894.80;1748244;78;21054;-64
2021/08/10 01:31:49;;;;;;;5.90;5.40;;;;;;;27.07;57.68;99890.43;1772915;78;21080;-62
2021/08/10 01:34:41;;;;;;;6.62;6.12;;;;;;;27.08;57.67;99892.60;1810064;78;21100;-62
2021/08/10 01:37:20;;;;;;;6.12;5.58;;;;;;;27.07;57.78;99897.80;1798291;78;21093;-62
2021/08/10 01:39:52;;;;;;;6.20;5.70;;;;;;;27.05;57.79;99893.98;1784453;78;21109;-63
2021/08/10 01:42:19;;;;;;;6.00;5.33;;;;;;;27.04;57.85;99892.36;1796908;78;21048;-64
2021/08/10 01:45:52;;;;;;;5.15;4.60;;;;;;;27.08;57.89;99887.16;1874659;76;22802;-63
2021/08/10 01:48:19;;;;;;;6.58;5.97;;;;;;;27.03;57.93;99889.91;1849560;77;21109;-64
2021/08/10 01:50:46;;;;;;;8.60;5.70;;;;;;;27.03;57.82;99884.45;1841843;77;21196;-64
2021/08/10 01:53:15;;;;;;;6.45;5.70;;;;;;;27.02;57.89;99880.91;1818745;77;21563;-64
2021/08/10 01:55:42;;;;;;;5.92;5.47;;;;;;;27.02;57.91;99878.71;1850313;77;20922;-63
2021/08/10 01:58:10;;;;;;;6.50;5.90;;;;;;;27.02;57.81;99880.08;1832305;77;20974;-64
2021/08/10 02:00:39;;;;;;;6.00;5.47;;;;;;;27.01;57.71;99874.36;1854323;77;20992;-62
2021/08/10 02:03:09;;;;;;;5.58;5.17;;;;;;;27.00;57.70;99878.17;1780178;80;21801;-62
2021/08/10 02:05:47;;;;;;;5.42;5.03;;;;;;;26.99;57.67;99877.91;1782585;79;20987;-63
2021/08/10 02:08:15;;;;;;;6.00;5.50;;;;;;;26.97;57.73;99874.64;1771424;80;21049;-63
2021/08/10 02:10:42;;;;;;;5.25;4.83;;;;;;;26.97;57.78;99871.92;1779661;80;21454;-63
2021/08/10 02:13:10;;;;;;;6.37;5.87;;;;;;;26.96;57.79;99871.08;1736652;79;21079;-62
2021/08/10 02:15:41;;;;;;;6.58;6.08;;;;;;;26.96;57.73;99870.27;1781006;79;21123;-63
2021/08/10 02:18:09;;;;;;;5.85;5.35;;;;;;;26.95;57.69;99868.66;1791088;80;21069;-63
2021/08/10 02:20:40;;;;;;;6.45;5.33;;;;;;;26.94;57.67;99865.09;1784925;79;21529;-62
2021/08/10 02:23:07;;;;;;;5.78;5.30;;;;;;;26.93;57.65;99873.01;1763656;80;21034;-63
2021/08/10 02:25:34;;;;;;;5.40;4.95;;;;;;;26.94;57.59;99880.63;1775561;80;21097;-62
2021/08/10 02:28:06;;;;;;;;;;;;;;;26.93;57.49;99873.56;1786424;79;21084;-63
2021/08/10 02:30:36;;;;;;;5.62;5.22;;;;;;;26.93;57.54;99874.38;1770781;80;20246;-63
2021/08/10 02:33:06;;;;;;;5.53;5.08;;;;;;;26.86;57.52;99873.27;1763271;80;21092;-63
2021/08/10 02:35:35;;;;;;;5.58;5.05;;;;;;;26.86;57.49;99864.28;1776288;80;21561;-63
2021/08/10 02:38:06;;;;;;;5.62;5.22;;;;;;;26.87;57.46;99878.20;1776574;80;21037;-63
2021/08/10 02:40:35;;;;;;;5.75;5.30;;;;;;;26.87;57.43;99876.28;1749496;80;21092;-64
2021/08/10 02:43:02;;;;;;;6.08;5.58;;;;;;;26.86;57.42;99877.36;1777791;79;21002;-63
2021/08/10 02:45:28;;;;;;;5.95;5.35;;;;;;;26.84;57.41;99872.72;1758510;80;21097;-65
2021/08/10 02:47:57;;;;;;;6.20;5.55;;;;;;;26.84;57.38;99874.09;1738987;80;21046;-65
2021/08/10 02:50:28;;;;;;;5.50;5.10;;;;;;;26.85;57.32;99873.56;1756548;80;21606;-65
2021/08/10 02:52:58;;;;;;;5.28;4.78;;;;;;;26.83;57.30;99872.47;1749419;80;21196;-64
2021/08/10 02:55:26;;;;;;;5.42;4.92;;;;;;;26.82;57.23;99873.55;1825600;77;21022;-64
2021/08/10 02:58:13;;;;;;;5.92;5.30;;;;;;;26.82;57.18;99873.55;1824387;77;21545;-63
2021/08/10 03:00:44;;;;;;;5.33;4.92;;;;;;;26.82;57.24;99873.55;1801197;77;21057;-64
2021/08/10 03:03:13;;;;;;;6.08;5.55;;;;;;;26.79;57.19;99879.55;1825791;77;21029;-63
2021/08/10 03:05:41;;;;;;;6.00;5.45;;;;;;;26.79;57.23;99880.92;1818722;77;21177;-64
2021/08/10 03:08:08;;;;;;;5.70;5.30;;;;;;;26.79;57.19;99883.64;1838617;77;21078;-63
2021/08/10 03:10:36;;;;;;;5.70;5.30;;;;;;;26.78;57.15;99887.45;1794414;77;21528;-63
2021/08/10 03:13:06;;;;;;;5.67;5.28;;;;;;;26.77;57.06;99884.46;1784255;79;21069;-64
2021/08/10 03:15:36;;;;;;;5.15;4.70;;;;;;;26.77;57.08;99891.80;1790226;79;21041;-63
2021/08/10 03:18:09;;;;;;;5.50;5.10;;;;;;;26.77;57.06;99888.55;1791472;79;21084;-63
2021/08/10 03:20:36;;;;;;;5.53;5.03;;;;;;;26.75;57.05;99883.89;1797560;79;21050;-62
2021/08/10 03:23:02;;;;;;;5.72;5.22;;;;;;;26.75;57.03;99883.89;1799132;79;20991;-63
2021/08/10 03:25:30;;;;;;;5.92;4.80;;;;;;;26.75;57.04;99892.61;1758798;79;21556;-62
2021/08/10 03:27:56;;;;;;;5.70;5.20;;;;;;;26.75;56.96;99889.34;1771337;79;21045;-64
2021/08/10 03:30:23;;;;;;;6.05;5.45;;;;;;;26.74;56.87;99884.19;1771807;80;21513;-63
2021/08/10 03:32:51;;;;;;;5.50;5.10;;;;;;;26.73;56.81;99881.17;1744404;80;21070;-64
2021/08/10 03:35:20;;;;;;;7.20;5.62;;;;;;;26.74;56.81;99885.55;1767527;80;21018;-63
2021/08/10 03:37:47;;;;;;;5.90;5.47;;;;;;;26.74;56.76;99886.91;1836498;77;21037;-64
2021/08/10 03:40:14;;;;;;;5.35;4.95;;;;;;;26.73;56.75;99884.70;1835949;77;20999;-63
2021/08/10 03:42:41;;;;;;;5.42;5.03;;;;;;;26.72;56.76;99891.27;1832898;77;21048;-63
2021/08/10 03:45:09;;;;;;;5.78;5.37;;;;;;;26.73;56.74;99890.70;1834777;77;21049;-63
2021/08/10 03:47:37;;;;;;;5.83;5.30;;;;;;;26.71;56.68;99888.25;1837427;77;21013;-65
2021/08/10 03:50:06;;;;;;;5.75;5.17;;;;;;;26.72;56.69;99883.09;1836357;77;21108;-63
2021/08/10 03:52:32;;;;;;;6.17;5.10;;;;;;;26.71;56.66;99881.44;1815562;78;21053;-63
2021/08/10 03:55:01;;;;;;;6.53;5.25;;;;;;;26.71;56.59;99888.25;1828746;77;21124;-63
2021/08/10 03:57:31;;;;;;;5.55;5.15;;;;;;;26.71;56.59;99885.52;1832232;77;21057;-63
2021/08/10 03:59:58;;;;;;;5.87;5.28;;;;;;;26.71;56.59;99888.25;1830779;77;21060;-65
2021/08/10 04:02:24;;;;;;;5.78;5.37;;;;;;;26.70;56.54;99890.72;1850542;76;21092;-65
2021/08/10 04:04:52;;;;;;;5.20;4.80;;;;;;;26.71;56.51;99883.36;1847066;77;21050;-63
2021/08/10 04:07:20;;;;;;;5.47;5.08;;;;;;;26.70;56.40;99889.36;1830527;77;21096;-64
2021/08/10 04:09:48;;;;;;;5.35;4.85;;;;;;;26.70;56.40;99883.91;1853176;77;21017;-64
2021/08/10 04:12:16;;;;;;;6.55;5.30;;;;;;;26.70;56.42;99877.64;1844692;77;21028;-63
2021/08/10 04:14:45;;;;;;;5.75;5.25;;;;;;;26.70;56.42;99874.92;1846015;77;21387;-64
2021/08/10 04:17:15;;;;;;;6.08;5.47;;;;;;;26.70;56.42;99888.00;1824838;77;21044;-64
2021/08/10 04:19:53;;;;;;;5.90;5.40;;;;;;;26.70;56.37;99876.28;1801008;77;22812;-64
2021/08/10 04:22:20;;;;;;;5.90;5.40;;;;;;;26.71;56.39;99881.44;1831594;77;21061;-63
2021/08/10 04:24:48;;;;;;;5.70;5.20;;;;;;;26.71;56.39;99880.08;1830767;77;21024;-64
2021/08/10 04:27:16;;;;;;;5.35;4.85;;;;;;;26.72;56.35;99883.09;1831087;77;21053;-63
2021/08/10 04:29:43;;;;;;;5.78;5.15;;;;;;;26.73;56.34;99883.90;1845789;77;21013;-64
2021/08/10 04:32:10;;;;;;;5.67;5.17;;;;;;;26.74;56.25;99882.27;1821216;77;21133;-64
2021/08/10 04:34:37;;;;;;;5.58;5.17;;;;;;;26.74;56.29;99879.55;1839114;77;21013;-63
2021/08/10 04:37:04;;;;;;;6.03;4.75;;;;;;;26.76;56.29;99883.37;1792023;77;21053;-63
2021/08/10 04:39:31;;;;;;;5.70;5.20;;;;;;;26.75;56.25;99883.89;1837062;77;21025;-63
2021/08/10 04:41:58;;;;;;;5.40;4.95;;;;;;;26.77;56.24;99888.55;1845199;77;21033;-65
2021/08/10 04:44:43;;;;;;;5.05;4.65;;;;;;;26.78;56.16;99882.55;1828113;77;21647;-64
2021/08/10 04:47:10;;;;;;;5.53;5.10;;;;;;;26.78;56.05;99882.55;1822770;78;21030;-65
2021/08/10 04:49:37;;;;;;;6.85;6.25;;;;;;;26.78;56.05;99876.55;1832848;78;20999;-66
2021/08/10 04:52:04;;;;;;;13.03;11.68;;;;;;;26.79;56.05;99878.20;1822509;78;21044;-66
2021/08/10 04:54:34;;;;;;;8.45;5.22;;;;;;;26.81;56.05;99873.81;1821413;78;21021;-62
2021/08/10 04:57:01;;;;;;;5.35;4.95;;;;;;;26.81;56.04;99870.56;1803061;78;21096;-69
2021/08/10 04:59:31;;;;;;;5.00;4.60;;;;;;;26.83;56.04;99873.83;1808003;78;21678;-63
2021/08/10 05:01:58;;;;;;;5.45;4.87;;;;;;;26.83;56.03;99864.29;1798001;78;21001;-63
2021/08/10 05:04:25;;;;;;;5.17;4.28;;;;;;;26.84;56.07;99862.38;1823950;78;21061;-66
2021/08/10 05:06:54;;;;;;;5.37;4.67;;;;;;;26.85;56.00;99869.47;1831053;78;20992;-63
2021/08/10 05:09:21;;;;;;;5.28;4.83;;;;;;;26.87;56.06;99867.30;1826343;78;21154;-63
2021/08/10 05:11:49;;;;;;;5.17;4.72;;;;;;;26.87;56.00;99861.29;1808177;78;21096;-66
2021/08/10 05:14:17;;;;;;;5.97;5.47;;;;;;;26.90;55.97;99870.00;1822064;78;21068;-65
2021/08/10 05:16:46;;;;;;;4.62;4.25;;;;;;;26.91;55.99;99868.38;1796294;78;21115;-64
2021/08/10 05:19:15;;;;;;;5.35;4.83;;;;;;;26.92;55.96;99865.09;1776080;78;21117;-67
2021/08/10 05:21:43;;;;;;;5.10;4.70;;;;;;;26.93;55.89;99865.38;1817158;78;21092;-64
2021/08/10 05:24:11;;;;;;;9.78;8.20;;;;;;;26.95;55.83;99868.66;1796079;78;21525;-63
2021/08/10 05:26:37;;;;;;;5.25;4.85;;;;;;;26.96;55.79;99864.81;1825364;78;21129;-64
2021/08/10 05:29:04;;;;;;;5.90;4.47;;;;;;;26.97;55.77;99865.91;1823919;78;21130;-65
2021/08/10 05:31:33;;;;;;;7.10;5.47;;;;;;;26.99;55.80;99861.55;1822385;76;21628;-64
2021/08/10 05:34:00;;;;;;;4.95;4.42;;;;;;;27.01;55.68;99858.01;1827327;77;21936;-66
2021/08/10 05:36:28;;;;;;;5.37;4.97;;;;;;;27.03;55.64;99857.19;1801092;78;21025;-65
2021/08/10 05:38:55;;;;;;;6.90;4.92;;;;;;;27.04;55.54;99861.53;1818562;78;21124;-64
2021/08/10 05:41:22;;;;;;;5.28;4.75;;;;;;;27.06;55.45;99858.82;1750229;81;21028;-64
2021/08/10 05:43:50;;;;;;;5.10;4.60;;;;;;;27.07;55.40;99859.08;1819944;78;21025;-64
2021/08/10 05:46:16;;;;;;;6.05;4.87;;;;;;;27.10;55.35;99864.55;1815970;77;21116;-64
2021/08/10 05:48:43;;;;;;;5.00;4.45;;;;;;;27.12;55.28;99861.00;1829380;77;21705;-64
2021/08/10 05:51:11;;;;;;;5.78;5.17;;;;;;;27.14;55.27;99863.42;1845573;77;21064;-65
2021/08/10 05:53:40;;;;;;;4.85;4.45;;;;;;;27.15;55.43;99864.52;1853270;77;21077;-64
2021/08/10 05:56:09;;;;;;;5.17;4.67;;;;;;;27.17;55.64;99863.70;1817486;77;21016;-63
2021/08/10 05:58:36;;;;;;;4.42;4.08;;;;;;;27.21;55.85;99868.86;1810019;78;21135;-65
2021/08/10 06:01:04;;;;;;;4.67;4.28;;;;;;;27.23;55.77;99867.23;1793976;78;21058;-65
2021/08/10 06:03:34;;;;;;;5.35;4.95;;;;;;;27.26;55.64;99864.00;1813801;78;21033;-65
2021/08/10 06:06:02;;;;;;;7.47;5.20;;;;;;;27.28;55.51;99863.17;1808670;78;21497;-64
2021/08/10 06:08:30;;;;;;;6.80;5.10;;;;;;;27.32;55.44;99863.44;1780398;79;21043;-64
2021/08/10 06:10:58;;;;;;;7.10;4.92;;;;;;;27.34;55.58;99864.80;1780760;80;21096;-66
2021/08/10 06:13:25;;;;;;;5.58;4.62;;;;;;;27.37;55.74;99866.14;1809367;78;20998;-64
2021/08/10 06:15:51;;;;;;;5.62;5.00;;;;;;;27.40;55.79;99867.77;1820025;78;20994;-64
2021/08/10 06:18:18;;;;;;;8.68;5.67;;;;;;;27.43;55.81;99870.52;1808669;78;21045;-65
2021/08/10 06:20:46;;;;;;;7.87;5.40;;;;;;;27.45;55.95;99871.05;1770885;78;21044;-66
2021/08/10 06:23:13;;;;;;;6.08;5.28;;;;;;;27.47;56.12;99871.59;1809155;78;21859;-63
2021/08/10 06:25:43;;;;;;;8.58;5.35;;;;;;;27.46;56.31;99859.84;1817465;78;21056;-64
2021/08/10 06:28:10;;;;;;;7.17;5.55;;;;;;;27.52;56.42;99861.20;1805703;78;22037;-64
2021/08/10 06:30:37;;;;;;;6.72;5.40;;;;;;;27.52;56.44;99853.82;1785335;79;21053;-64
2021/08/10 06:33:04;;;;;;;7.78;5.45;;;;;;;27.55;56.33;99851.11;1791675;79;21064;-65
2021/08/10 06:35:31;;;;;;;6.83;5.40;;;;;;;27.55;56.04;99852.47;1787451;79;21140;-65
2021/08/10 06:37:58;;;;;;;6.37;5.72;;;;;;;27.57;56.20;99849.72;1784238;79;21560;-64
2021/08/10 06:40:24;;;;;;;7.58;5.10;;;;;;;27.59;56.27;99851.63;1797190;79;21520;-66
2021/08/10 06:42:51;;;;;;;5.97;5.37;;;;;;;27.62;56.26;99851.60;1801274;79;21136;-65
2021/08/10 06:45:19;;;;;;;7.20;4.78;;;;;;;27.63;56.11;99854.06;1785839;79;21037;-63
2021/08/10 06:47:48;;;;;;;6.17;5.25;;;;;;;27.66;55.95;99854.03;1774303;79;21125;-64
2021/08/10 06:50:16;;;;;;;5.78;5.25;;;;;;;27.70;56.25;99857.03;1782457;79;22215;-64
2021/08/10 06:52:44;;;;;;;7.47;5.25;;;;;;;27.72;56.33;99854.31;1772476;80;21007;-65
2021/08/10 06:55:11;;;;;;;6.03;5.42;;;;;;;27.74;56.28;99851.28;1788450;79;21035;-66
2021/08/10 06:57:38;;;;;;;9.40;5.30;;;;;;;27.76;56.11;99851.84;1783142;79;21053;-66
2021/08/10 07:00:08;;;;;;;9.20;5.05;;;;;;;27.79;56.05;99848.54;1830103;77;21141;-64
2021/08/10 07:02:36;;;;;;;6.87;5.60;;;;;;;27.81;56.00;99842.25;1830844;77;21528;-65
2021/08/10 07:05:04;;;;;;;7.30;5.15;;;;;;;27.82;55.77;99844.70;1830632;77;21104;-64
2021/08/10 07:07:32;;;;;;;5.55;4.70;;;;;;;27.84;55.59;99852.62;1831858;77;21045;-64
2021/08/10 07:10:01;;;;;;;6.87;4.83;;;;;;;27.86;55.55;99847.70;1829979;77;21002;-66
2021/08/10 07:12:28;;;;;;;6.37;5.20;;;;;;;27.87;55.33;99838.39;1831527;77;21974;-65
2021/08/10 07:14:55;;;;;;;6.50;5.78;;;;;;;27.89;55.32;99832.13;1831645;77;21044;-67
2021/08/10 07:17:23;;;;;;;5.03;4.58;;;;;;;27.92;55.18;99834.88;1833313;77;21041;-70
2021/08/10 07:19:51;;;;;;;8.40;4.80;;;;;;;27.93;55.06;99831.02;1829765;77;21505;-67
2021/08/10 07:22:20;;;;;;;4.78;4.37;;;;;;;27.94;54.94;99837.58;1834332;77;21069;-65
2021/08/10 07:24:47;;;;;;;5.10;4.70;;;;;;;27.97;55.10;99834.82;1829891;77;21887;-64
2021/08/10 07:27:14;;;;;;;5.78;5.00;;;;;;;28.00;55.03;99841.09;1836712;77;22012;-64
2021/08/10 07:29:43;;;;;;;6.28;4.55;;;;;;;28.01;54.94;99843.55;1828308;77;21004;-65
2021/08/10 07:32:11;;;;;;;5.35;4.85;;;;;;;28.03;54.94;99841.35;1834761;77;21523;-64
2021/08/10 07:34:38;;;;;;;5.40;4.90;;;;;;;28.07;55.22;99844.87;1829020;77;21510;-68
2021/08/10 07:37:06;;;;;;;5.30;4.80;;;;;;;28.09;55.33;99842.14;1808797;77;21472;-66
2021/08/10 07:39:32;;;;;;;5.80;5.15;;;;;;;28.12;55.25;99840.20;1830289;77;21544;-66
2021/08/10 07:41:59;;;;;;;5.03;4.53;;;;;;;28.13;55.19;99837.75;1825220;77;21558;-66
2021/08/10 07:44:27;;;;;;;7.83;5.10;;;;;;;28.17;54.75;99839.37;1832694;77;21030;-66
2021/08/10 07:46:54;;;;;;;5.30;4.80;;;;;;;28.19;54.75;99840.70;1830097;77;21088;-67
2021/08/10 07:49:22;;;;;;;5.80;4.75;;;;;;;28.21;54.85;99843.16;1825941;77;21972;-65
2021/08/10 07:51:49;;;;;;;10.68;4.87;;;;;;;28.24;54.81;99843.97;1831717;77;21546;-65
2021/08/10 07:54:15;;;;;;;5.60;5.03;;;;;;;28.26;54.50;99845.03;1832433;77;21545;-64
2021/08/10 07:56:42;;;;;;;5.10;4.70;;;;;;;28.29;54.45;99847.21;1827945;77;21592;-65
2021/08/10 07:59:10;;;;;;;5.45;5.05;;;;;;;28.30;53.96;99851.03;1823767;77;21038;-66
2021/08/10 08:01:37;;;;;;;5.30;4.80;;;;;;;28.33;53.87;99854.55;1833728;77;21537;-65
2021/08/10 08:04:04;;;;;;;5.37;4.85;;;;;;;28.35;53.66;99851.53;1832303;77;21351;-64
2021/08/10 08:06:31;;;;;;;4.78;4.37;;;;;;;28.36;53.65;99845.80;1835909;77;21101;-66
2021/08/10 08:08:57;;;;;;;5.03;4.55;;;;;;;28.38;53.38;99839.49;1831687;77;21104;-65
2021/08/10 08:11:25;;;;;;;5.45;5.00;;;;;;;28.40;53.42;99839.22;1837362;77;21502;-63
2021/08/10 08:13:51;;;;;;;6.28;5.40;;;;;;;28.42;53.21;99835.65;1829373;77;21166;-65
2021/08/10 08:16:18;;;;;;;4.80;4.40;;;;;;;28.43;53.46;99836.73;1837538;77;21076;-64
2021/08/10 08:18:45;;;;;;;5.05;4.65;;;;;;;28.46;53.34;99832.61;1825938;77;21073;-65
2021/08/10 08:21:13;;;;;;;5.17;4.78;;;;;;;28.48;52.96;99829.03;1829684;77;21084;-63
2021/08/10 08:23:43;;;;;;;5.28;4.45;;;;;;;28.50;52.92;99828.20;1825530;77;21073;-66
2021/08/10 08:26:10;;;;;;;6.40;4.67;;;;;;;28.52;53.00;99827.39;1833824;77;21106;-66
2021/08/10 08:28:38;;;;;;;21.02;15.03;;;;;;;28.54;53.10;99825.75;1829051;77;21013;-67
2021/08/10 08:31:05;;;;;;;16.93;13.15;;;;;;;28.56;52.92;99826.27;1825420;77;21049;-68
2021/08/10 08:33:32;;;;;;;16.48;11.22;;;;;;;28.59;52.71;99835.28;1792079;79;21034;-67
2021/08/10 08:36:00;;;;;;;17.05;12.20;;;;;;;28.61;52.75;99827.61;1787768;77;21513;-66
2021/08/10 08:38:26;;;;;;;12.68;9.55;;;;;;;28.61;52.95;99822.95;1791376;79;21838;-67
2021/08/10 08:40:54;;;;;;;10.82;9.28;;;;;;;28.64;52.95;99818.82;1786411;78;21045;-67
2021/08/10 08:43:23;;;;;;;11.20;9.35;;;;;;;28.65;52.73;99819.10;1787498;79;21018;-67
2021/08/10 08:45:50;;;;;;;9.48;8.48;;;;;;;28.66;52.64;99816.62;1783414;79;21034;-65
2021/08/10 08:48:17;;;;;;;9.25;7.47;;;;;;;28.68;52.73;99810.87;1849703;77;21087;-68
2021/08/10 08:50:46;;;;;;;8.58;7.67;;;;;;;28.68;52.74;99814.41;1846931;77;21132;-65
2021/08/10 08:53:14;;;;;;;9.68;8.03;;;;;;;28.70;52.73;99812.20;1844838;77;21064;-65
2021/08/10 08:55:46;;;;;;;10.80;8.03;;;;;;;28.71;52.76;99805.65;1842314;77;21076;-67
2021/08/10 08:58:14;;;;;;;8.08;7.10;;;;;;;28.73;52.84;99802.08;1839483;77;21544;-68
2021/08/10 09:00:42;;;;;;;7.80;7.00;;;;;;;28.75;52.45;99806.70;1843237;77;20993;-67
2021/08/10 09:03:09;;;;;;;7.30;6.40;;;;;;;28.76;52.73;99809.72;1845489;77;21072;-68
2021/08/10 09:05:39;;;;;;;7.50;6.25;;;;;;;28.78;52.73;99811.61;1843997;77;21055;-65
2021/08/10 09:08:29;;;;;;;7.80;6.55;;;;;;;28.80;52.66;99805.30;1847851;77;21080;-70
2021/08/10 09:11:04;;;;;;;7.08;6.47;;;;;;;28.82;52.58;99806.38;1843784;77;21049;-68
2021/08/10 09:13:34;;;;;;;6.55;5.95;;;;;;;28.84;52.66;99809.64;1842971;77;21561;-66
2021/08/10 09:16:04;;;;;;;6.55;5.95;;;;;;;28.86;52.64;99803.86;1844756;77;21107;-69
2021/08/10 09:18:35;;;;;;;5.92;5.42;;;;;;;28.87;52.64;99804.95;1845100;77;21060;-69
2021/08/10 09:21:12;;;;;;;9.20;6.12;;;;;;;28.90;52.55;99802.21;1818419;77;22047;-67
2021/08/10 09:23:56;;;;;;;7.17;6.00;;;;;;;28.90;52.50;99797.55;1844115;77;21526;-66
2021/08/10 09:26:36;;;;;;;7.05;5.42;;;;;;;28.92;52.57;99804.91;1839600;77;20971;-66
2021/08/10 09:29:04;;;;;;;6.28;5.70;;;;;;;28.93;52.58;99808.45;1842968;77;21419;-67
2021/08/10 09:31:46;;;;;;;11.75;6.10;;;;;;;28.93;52.49;99806.52;1841700;77;21080;-68
2021/08/10 09:34:22;;;;;;;5.37;4.97;;;;;;;28.92;51.76;99799.44;1841622;77;21057;-68
2021/08/10 09:36:50;;;;;;;5.72;4.87;;;;;;;28.92;50.85;99793.97;1842822;77;21009;-69
2021/08/10 09:39:29;;;;;;;5.97;5.37;;;;;;;28.92;50.67;99803.55;1845183;77;20994;-66
2021/08/10 09:42:09;;;;;;;7.53;5.53;;;;;;;28.93;50.19;99798.32;1842500;77;22114;-68
2021/08/10 09:45:00;;;;;;;6.37;5.60;;;;;;;28.95;50.50;99796.67;1844410;77;21001;-68
2021/08/10 09:47:35;;;;;;;6.17;5.58;;;;;;;28.95;50.65;99796.11;1839675;77;21072;-65
2021/08/10 09:50:03;;;;;;;5.17;4.78;;;;;;;28.95;50.49;99792.01;1840612;77;21474;-65
2021/08/10 09:52:32;;;;;;;5.70;5.20;;;;;;;28.97;50.68;99788.43;1778072;77;21018;-67
2021/08/10 09:55:12;;;;;;;5.47;5.00;;;;;;;29.01;50.67;99787.30;1841398;77;21641;-69
2021/08/10 09:57:43;;;;;;;7.17;5.20;;;;;;;29.04;50.60;99791.40;1815361;77;21072;-66
2021/08/10 10:00:11;;;;;;;5.58;4.92;;;;;;;29.07;50.61;99787.53;1841507;77;21036;-66
2021/08/10 10:02:40;;;;;;;5.10;4.70;;;;;;;29.10;50.53;99778.73;1844326;77;21069;-65
2021/08/10 10:05:09;;;;;;;5.33;4.92;;;;;;;29.14;50.41;99782.55;1841897;77;21486;-67
2021/08/10 10:07:35;;;;;;;5.45;5.05;;;;;;;29.17;50.41;99774.33;1810453;77;21088;-65
2021/08/10 10:10:05;;;;;;;4.78;4.37;;;;;;;29.18;50.13;99774.02;1800048;79;21144;-65
2021/08/10 10:12:35;;;;;;;5.40;4.50;;;;;;;29.20;49.29;99775.09;1780367;78;21543;-65
2021/08/10 10:15:02;;;;;;;4.83;4.42;;;;;;;29.20;48.55;99773.73;1784963;78;21502;-65
2021/08/10 10:17:32;;;;;;;5.00;4.60;;;;;;;29.20;48.09;99770.44;1773051;80;21111;-67
2021/08/10 10:20:01;;;;;;;5.35;4.83;;;;;;;29.21;47.48;99765.23;1839128;77;21061;-66
2021/08/10 10:22:32;;;;;;;4.87;4.50;;;;;;;29.23;46.81;99766.88;1845427;77;21045;-65
2021/08/10 10:24:58;;;;;;;4.95;4.30;;;;;;;29.23;46.37;99766.88;1837926;77;21032;-66
2021/08/10 10:27:24;;;;;;;4.87;4.47;;;;;;;29.22;46.10;99766.05;1847129;77;21041;-67
2021/08/10 10:29:56;;;;;;;5.50;5.00;;;;;;;29.24;45.65;99761.66;1770750;80;21049;-67
2021/08/10 10:32:23;;;;;;;4.78;4.28;;;;;;;29.24;45.46;99756.99;1849336;77;22244;-66
2021/08/10 10:34:50;;;;;;;6.40;4.92;;;;;;;29.27;45.31;99750.95;1840445;77;21091;-69
2021/08/10 10:37:27;;;;;;;5.17;4.78;;;;;;;29.28;45.14;99751.19;1844981;77;21579;-67
2021/08/10 10:40:02;;;;;;;4.50;4.20;;;;;;;29.32;45.18;99751.42;1844230;77;21052;-67
2021/08/10 10:42:29;;;;;;;5.10;4.70;;;;;;;29.35;45.42;99747.55;1838679;77;21054;-67
2021/08/10 10:45:01;;;;;;;5.17;4.72;;;;;;;29.41;45.68;99745.57;1847157;77;21140;-69
2021/08/10 10:47:33;;;;;;;5.92;4.37;;;;;;;29.43;45.83;99739.25;1835239;77;21017;-68
2021/08/10 10:50:05;;;;;;;5.67;4.92;;;;;;;29.45;44.81;99738.40;1825158;77;21470;-70
2021/08/10 10:52:34;;;;;;;5.20;4.65;;;;;;;29.45;44.09;99737.03;1827016;77;21053;-70
2021/08/10 10:55:04;;;;;;;4.83;4.42;;;;;;;29.46;44.44;99746.89;1819562;77;21013;-69
2021/08/10 10:57:35;;;;;;;4.70;4.30;;;;;;;29.45;44.38;99740.33;1764761;79;21517;-67
2021/08/10 11:00:15;;;;;;;5.65;5.15;;;;;;;29.45;44.00;99741.14;1832035;76;21123;-67
2021/08/10 11:02:42;;;;;;;4.50;4.10;;;;;;;29.49;44.48;99744.91;1824699;77;21111;-67
2021/08/10 11:05:22;;;;;;;6.72;4.85;;;;;;;29.54;44.36;99739.94;1829901;77;21081;-66
2021/08/10 11:07:52;;;;;;;4.35;4.05;;;;;;;29.58;44.05;99741.78;1830403;77;21564;-64
2021/08/10 11:10:47;;;;;;;4.72;4.33;;;;;;;29.64;43.76;99734.31;1835159;77;21094;-66
2021/08/10 11:13:25;;;;;;;4.97;4.47;;;;;;;29.69;43.68;99733.42;1834576;77;21029;-66
2021/08/10 11:15:55;;;;;;;4.60;4.20;;;;;;;29.75;43.79;99736.40;1827700;77;21017;-67
2021/08/10 11:18:23;;;;;;;7.33;4.30;;;;;;;29.78;44.06;99728.95;1835268;77;20982;-69
2021/08/10 11:20:54;;;;;;;4.58;4.28;;;;;;;29.83;44.36;99720.66;1830460;77;21021;-65
2021/08/10 11:23:26;;;;;;;4.55;4.15;;;;;;;29.88;44.51;99721.13;1831958;77;21555;-66
2021/08/10 11:26:09;;;;;;;6.83;4.33;;;;;;;29.91;44.68;99730.94;1830053;77;21726;-65
2021/08/10 11:28:38;;;;;;;5.12;4.72;;;;;;;29.95;44.85;99721.58;1841546;77;21038;-68
2021/08/10 11:31:10;;;;;;;4.75;4.35;;;;;;;30.01;45.08;99722.31;1808750;77;21549;-67
2021/08/10 11:33:40;;;;;;;5.22;4.70;;;;;;;30.05;45.22;99717.86;1835581;77;21033;-67
2021/08/10 11:36:15;;;;;;;5.00;4.60;;;;;;;30.10;45.29;99718.59;1828538;77;21080;-67
2021/08/10 11:38:53;;;;;;;4.97;4.58;;;;;;;30.12;45.44;99710.09;1830520;77;21010;-66
2021/08/10 11:41:33;;;;;;;5.17;4.42;;;;;;;30.13;45.50;99704.84;1831151;77;21141;-70
2021/08/10 11:44:01;;;;;;;5.22;4.72;;;;;;;30.11;45.63;99711.19;1791246;79;21062;-67
2021/08/10 11:46:34;;;;;;;5.20;4.80;;;;;;;30.09;45.87;99709.30;1770904;80;21065;-67